Time;durP1;ratioP1;P1;durP2;ratioP2;P2;SDS_P1;SDS_P2;PMS_P1;PMS_P2;Temp;Humidity;BMP_temperature;BMP_pressure;BME280_temperature;BME280_humidity;BME280_pressure;Samples;Min_cycle;Max_cycle;Signal;HPM_P1;HPM_P2
2022/11/11 00:01:06;;;;;;;0.10;0.10;;;;;;;;;;5110721;28;20080;-70
2022/11/11 00:03:54;;;;;;;0.10;0.10;;;;;;;;;;5110614;28;20066;-72
2022/11/11 00:06:38;;;;;;;0.25;0.25;;;;;;;;;;5110647;28;20547;-71
2022/11/11 00:09:22;;;;;;;0.15;0.15;;;;;;;;;;5110730;28;20042;-70
2022/11/11 00:12:07;;;;;;;0.10;0.10;;;;;;;;;;5109256;28;20038;-70
2022/11/11 00:14:51;;;;;;;0.20;0.20;;;;;;;;;;5110572;28;20058;-70
2022/11/11 00:26:44;;;;;;;0.30;0.30;;;;;;;;;;5114413;28;20505;-73
2022/11/11 00:29:28;;;;;;;0.10;0.10;;;;;;;;;;5114524;28;20282;-71
2022/11/11 00:32:22;;;;;;;0.20;0.20;;;;;;;;;;5113859;28;20055;-71
2022/11/11 00:38:44;;;;;;;0.20;0.20;;;;;;;;;;5114297;28;20045;-71
2022/11/11 00:41:17;;;;;;;0.57;0.57;;;;;;;;;;5113966;28;20062;-71
2022/11/11 00:44:01;;;;;;;3.80;3.40;;;;;;;;;;5114151;28;20059;-71
2022/11/11 00:52:51;;;;;;;1.48;1.38;;;;;;;;;;5113807;28;20050;-70
2022/11/11 00:55:35;;;;;;;0.10;0.10;;;;;;;;;;5114080;28;20560;-70
2022/11/11 00:58:21;;;;;;;0.10;0.10;;;;;;;;;;5113815;28;20387;-72
2022/11/11 01:01:06;;;;;;;3.53;3.35;;;;;;;;;;5114070;28;20042;-71
2022/11/11 01:03:50;;;;;;;1.25;1.10;;;;;;;;;;5113988;28;20031;-70
2022/11/11 01:06:35;;;;;;;0.10;0.10;;;;;;;;;;5113770;28;20161;-71
2022/11/11 01:09:19;;;;;;;0.10;0.10;;;;;;;;;;5113774;28;20046;-70
2022/11/11 01:12:03;;;;;;;0.45;0.45;;;;;;;;;;5113751;28;20046;-70
2022/11/11 01:14:47;;;;;;;0.50;0.50;;;;;;;;;;5113764;28;20088;-71
2022/11/11 01:17:31;;;;;;;3.08;1.30;;;;;;;;;;5112811;28;20080;-71
2022/11/11 01:20:15;;;;;;;0.20;0.20;;;;;;;;;;5113857;28;20031;-70
2022/11/11 01:22:59;;;;;;;0.20;0.20;;;;;;;;;;5113739;28;20402;-70
2022/11/11 01:25:45;;;;;;;10.30;9.40;;;;;;;;;;5113840;28;20147;-70
2022/11/11 01:28:30;;;;;;;0.10;0.10;;;;;;;;;;5113697;28;20054;-70
2022/11/11 01:31:15;;;;;;;0.82;0.82;;;;;;;;;;5113434;28;20101;-70
2022/11/11 01:33:59;;;;;;;0.10;0.10;;;;;;;;;;5113586;28;20508;-70
2022/11/11 01:36:44;;;;;;;1.40;1.35;;;;;;;;;;5113394;28;20042;-71
2022/11/11 01:39:28;;;;;;;0.70;0.70;;;;;;;;;;5113649;28;20134;-70
2022/11/11 01:42:12;;;;;;;7.53;7.00;;;;;;;;;;5113448;28;20131;-70
2022/11/11 01:44:57;;;;;;;0.10;0.10;;;;;;;;;;5113428;28;20081;-70
2022/11/11 01:50:43;;;;;;;4.88;4.57;;;;;;;;;;5114097;28;20536;-70
2022/11/11 01:53:28;;;;;;;0.20;0.20;;;;;;;;;;5095294;28;20505;-70
2022/11/11 01:56:13;;;;;;;0.20;0.20;;;;;;;;;;5095050;28;20093;-70
2022/11/11 01:58:59;;;;;;;0.63;0.63;;;;;;;;;;5092752;28;20097;-70
2022/11/11 02:01:43;;;;;;;0.70;0.70;;;;;;;;;;5094530;28;20047;-70
2022/11/11 02:07:33;;;;;;;2.15;2.05;;;;;;;;;;5096748;28;20051;-70
2022/11/11 02:10:19;;;;;;;0.10;0.10;;;;;;;;;;5096352;28;20071;-71
2022/11/11 02:16:08;;;;;;;0.95;0.95;;;;;;;;;;5096540;28;20043;-70
2022/11/11 02:18:52;;;;;;;0.25;0.25;;;;;;;;;;5095895;28;20043;-70
2022/11/11 02:21:41;;;;;;;0.13;0.13;;;;;;;;;;5096111;28;20059;-70
2022/11/11 02:24:26;;;;;;;0.20;0.20;;;;;;;;;;5095392;28;20047;-70
2022/11/11 02:27:13;;;;;;;0.10;0.10;;;;;;;;;;5095303;28;20039;-70
2022/11/11 02:29:58;;;;;;;0.10;0.10;;;;;;;;;;5095345;28;20078;-70
2022/11/11 02:32:47;;;;;;;3.70;3.50;;;;;;;;;;5096172;28;20564;-70
2022/11/11 02:35:33;;;;;;;0.57;0.57;;;;;;;;;;5095214;28;20395;-70
2022/11/11 02:38:17;;;;;;;0.30;0.30;;;;;;;;;;5095990;28;20055;-70
2022/11/11 02:44:04;;;;;;;10.57;9.73;;;;;;;;;;5095732;28;20546;-70
2022/11/11 02:46:48;;;;;;;0.10;0.10;;;;;;;;;;5095301;28;20039;-71
2022/11/11 02:49:32;;;;;;;0.38;0.38;;;;;;;;;;5094937;28;20152;-70
2022/11/11 02:52:16;;;;;;;0.17;0.17;;;;;;;;;;5094670;28;20051;-70
2022/11/11 02:55:01;;;;;;;1.10;1.10;;;;;;;;;;5095779;28;20043;-70
2022/11/11 02:57:45;;;;;;;1.17;1.17;;;;;;;;;;5095736;28;20035;-70
2022/11/11 03:00:29;;;;;;;0.10;0.10;;;;;;;;;;5095653;28;20101;-69
2022/11/11 03:03:14;;;;;;;0.10;0.10;;;;;;;;;;5095709;28;20097;-70
2022/11/11 03:05:57;;;;;;;2.25;2.08;;;;;;;;;;5095534;28;20046;-70
2022/11/11 03:08:42;;;;;;;0.20;0.20;;;;;;;;;;5095545;28;20075;-70
2022/11/11 03:11:26;;;;;;;0.20;0.20;;;;;;;;;;5095373;28;20047;-70
2022/11/11 03:14:10;;;;;;;0.55;0.55;;;;;;;;;;5095215;28;20035;-70
2022/11/11 03:21:03;;;;;;;0.10;0.10;;;;;;;;;;5095289;28;20518;-70
2022/11/11 03:23:01;;;;;;;0.20;0.20;;;;;;;;;;5095221;28;20047;-70
2022/11/11 03:25:46;;;;;;;0.32;0.32;;;;;;;;;;5095183;28;20046;-70
2022/11/11 03:28:30;;;;;;;0.20;0.20;;;;;;;;;;5095166;28;20123;-70
2022/11/11 03:31:14;;;;;;;2.58;2.47;;;;;;;;;;5094813;28;20085;-70
2022/11/11 03:34:16;;;;;;;0.10;0.10;;;;;;;;;;5094989;28;20419;-70
2022/11/11 03:40:04;;;;;;;0.20;0.20;;;;;;;;;;5094770;28;20445;-70
2022/11/11 03:42:48;;;;;;;4.97;4.68;;;;;;;;;;5094809;28;20043;-70
2022/11/11 03:45:33;;;;;;;0.20;0.20;;;;;;;;;;5094625;28;20118;-70
2022/11/11 03:48:17;;;;;;;0.75;0.75;;;;;;;;;;5094712;28;20081;-71
2022/11/11 03:51:01;;;;;;;3.00;2.88;;;;;;;;;;5094662;28;20043;-70
2022/11/11 03:53:46;;;;;;;0.17;0.17;;;;;;;;;;5094211;28;20108;-70
2022/11/11 03:56:29;;;;;;;0.17;0.17;;;;;;;;;;5093581;28;20543;-71
2022/11/11 03:59:14;;;;;;;0.10;0.10;;;;;;;;;;5093553;28;20474;-70
2022/11/11 04:11:12;;;;;;;1.50;1.42;;;;;;;;;;5090666;28;20517;-70
2022/11/11 04:17:02;;;;;;;0.20;0.20;;;;;;;;;;5090144;28;20043;-73
2022/11/11 04:22:52;;;;;;;0.63;0.63;;;;;;;;;;5089650;28;20038;-72
2022/11/11 04:25:48;;;;;;;0.10;0.10;;;;;;;;;;5089742;28;20047;-71
2022/11/11 04:31:36;;;;;;;1.27;0.50;;;;;;;;;;5089373;28;20070;-71
2022/11/11 04:34:20;;;;;;;0.30;0.30;;;;;;;;;;5089929;28;20104;-72
2022/11/11 04:37:04;;;;;;;0.40;0.40;;;;;;;;;;5089951;28;20498;-71
2022/11/11 04:42:53;;;;;;;0.13;0.13;;;;;;;;;;5089781;28;20104;-70
2022/11/11 04:45:37;;;;;;;0.85;0.52;;;;;;;;;;5089635;28;20077;-70
2022/11/11 04:48:22;;;;;;;0.52;0.52;;;;;;;;;;5089835;28;20035;-70
2022/11/11 04:51:07;;;;;;;0.10;0.10;;;;;;;;;;5089780;28;20079;-70
2022/11/11 04:53:51;;;;;;;6.85;6.43;;;;;;;;;;5089817;28;20137;-71
2022/11/11 04:56:48;;;;;;;0.10;0.10;;;;;;;;;;5089389;28;20089;-70
2022/11/11 04:59:33;;;;;;;0.10;0.10;;;;;;;;;;5089969;28;20043;-71
2022/11/11 05:05:21;;;;;;;0.85;0.85;;;;;;;;;;5089890;28;20114;-70
2022/11/11 05:11:10;;;;;;;0.45;0.45;;;;;;;;;;5089547;28;20040;-70
2022/11/11 05:23:05;;;;;;;0.55;0.55;;;;;;;;;;5089103;28;20038;-71
2022/11/11 05:25:50;;;;;;;0.10;0.10;;;;;;;;;;5089165;28;20419;-71
2022/11/11 05:28:34;;;;;;;0.30;0.30;;;;;;;;;;5088389;28;20070;-71
2022/11/11 05:31:18;;;;;;;0.30;0.30;;;;;;;;;;5088813;28;20094;-70
2022/11/11 05:34:02;;;;;;;12.25;1.95;;;;;;;;;;5089002;28;20109;-69
2022/11/11 05:36:46;;;;;;;0.10;0.10;;;;;;;;;;5090720;28;20093;-71
2022/11/11 05:39:31;;;;;;;0.30;0.30;;;;;;;;;;5093315;28;20105;-71
2022/11/11 05:42:15;;;;;;;0.10;0.10;;;;;;;;;;5092884;28;20047;-71
2022/11/11 05:44:59;;;;;;;0.10;0.10;;;;;;;;;;5093117;28;20039;-72
2022/11/11 05:47:44;;;;;;;0.10;0.10;;;;;;;;;;5091823;28;20085;-70
2022/11/11 05:50:28;;;;;;;0.30;0.30;;;;;;;;;;5093207;28;20043;-71
2022/11/11 05:53:12;;;;;;;0.25;0.25;;;;;;;;;;5092298;28;20052;-71
2022/11/11 05:55:57;;;;;;;4.10;3.45;;;;;;;;;;5092738;28;20066;-71
2022/11/11 05:58:41;;;;;;;4.40;4.20;;;;;;;;;;5092407;28;20035;-71
2022/11/11 06:01:26;;;;;;;0.10;0.10;;;;;;;;;;5092561;28;20165;-71
2022/11/11 06:04:10;;;;;;;0.15;0.15;;;;;;;;;;5092438;28;20131;-71
2022/11/11 06:06:54;;;;;;;0.10;0.10;;;;;;;;;;5092523;28;20494;-71
2022/11/11 06:09:39;;;;;;;0.10;0.10;;;;;;;;;;5092387;28;20085;-71
2022/11/11 06:12:23;;;;;;;1.88;1.77;;;;;;;;;;5092167;28;20097;-70
2022/11/11 06:15:08;;;;;;;0.10;0.10;;;;;;;;;;5092335;28;20502;-70
2022/11/11 06:17:52;;;;;;;0.10;0.10;;;;;;;;;;5091867;28;20528;-71
2022/11/11 06:20:37;;;;;;;3.10;1.08;;;;;;;;;;5092117;28;20391;-71
2022/11/11 06:23:22;;;;;;;0.10;0.10;;;;;;;;;;5091660;28;20043;-70
2022/11/11 06:26:12;;;;;;;0.10;0.10;;;;;;;;;;5091819;28;20085;-70
2022/11/11 06:28:56;;;;;;;11.98;2.75;;;;;;;;;;5091855;28;20043;-71
2022/11/11 06:31:41;;;;;;;0.60;0.60;;;;;;;;;;5091688;28;20470;-71
2022/11/11 06:34:25;;;;;;;6.20;3.83;;;;;;;;;;5091841;28;20140;-70
2022/11/11 06:37:09;;;;;;;0.10;0.10;;;;;;;;;;5092082;28;20035;-70
2022/11/11 06:39:53;;;;;;;0.10;0.10;;;;;;;;;;5092175;28;20108;-70
2022/11/11 06:42:38;;;;;;;0.10;0.10;;;;;;;;;;5091890;28;20105;-72
2022/11/11 06:45:23;;;;;;;0.10;0.10;;;;;;;;;;5090491;28;20101;-70
2022/11/11 06:48:07;;;;;;;0.10;0.10;;;;;;;;;;5089549;28;20577;-71
2022/11/11 06:50:52;;;;;;;0.15;0.15;;;;;;;;;;5089813;28;20092;-71
2022/11/11 06:53:36;;;;;;;3.72;3.38;;;;;;;;;;5089629;28;20043;-72
2022/11/11 06:56:20;;;;;;;0.10;0.10;;;;;;;;;;5089823;28;20082;-70
2022/11/11 06:59:05;;;;;;;0.17;0.17;;;;;;;;;;5089831;28;20097;-70
2022/11/11 07:01:49;;;;;;;5.57;2.17;;;;;;;;;;5091402;28;20071;-71
2022/11/11 07:04:33;;;;;;;1.30;1.30;;;;;;;;;;5091692;28;20039;-72
2022/11/11 07:07:18;;;;;;;0.30;0.30;;;;;;;;;;5091580;28;20490;-70
2022/11/11 07:10:06;;;;;;;0.13;0.13;;;;;;;;;;5090870;28;20055;-72
2022/11/11 07:12:50;;;;;;;5.00;4.68;;;;;;;;;;5091639;28;20055;-71
2022/11/11 07:15:34;;;;;;;0.10;0.10;;;;;;;;;;5091374;28;20055;-72
2022/11/11 07:18:19;;;;;;;0.10;0.10;;;;;;;;;;5091587;28;20066;-70
2022/11/11 07:21:03;;;;;;;0.20;0.20;;;;;;;;;;5091387;28;20208;-71
2022/11/11 07:23:47;;;;;;;0.10;0.10;;;;;;;;;;5091154;28;20089;-70
2022/11/11 07:26:31;;;;;;;1.30;1.30;;;;;;;;;;5091171;28;20398;-72
2022/11/11 07:29:16;;;;;;;0.88;0.45;;;;;;;;;;5091188;28;20147;-70
2022/11/11 07:32:01;;;;;;;0.10;0.10;;;;;;;;;;5090377;28;20097;-71
2022/11/11 07:34:45;;;;;;;16.38;1.55;;;;;;;;;;5095617;28;20078;-70
2022/11/11 07:37:30;;;;;;;0.20;0.20;;;;;;;;;;5097133;28;20125;-72
2022/11/11 07:40:15;;;;;;;2.47;2.38;;;;;;;;;;5090796;28;20042;-70
2022/11/11 07:43:00;;;;;;;0.20;0.20;;;;;;;;;;5090011;28;20039;-70
2022/11/11 07:45:45;;;;;;;0.20;0.20;;;;;;;;;;5090554;28;20065;-71
2022/11/11 07:48:29;;;;;;;0.20;0.20;;;;;;;;;;5090968;28;20047;-72
2022/11/11 07:51:14;;;;;;;0.32;0.32;;;;;;;;;;5090492;28;20510;-71
2022/11/11 07:54:00;;;;;;;0.55;0.55;;;;;;;;;;5090181;28;20078;-74
2022/11/11 07:56:44;;;;;;;0.22;0.22;;;;;;;;;;5090336;28;20181;-70
2022/11/11 07:59:29;;;;;;;0.20;0.20;;;;;;;;;;5089818;28;20042;-71
2022/11/11 08:02:14;;;;;;;0.40;0.40;;;;;;;;;;5090474;28;20187;-72
2022/11/11 08:04:58;;;;;;;0.30;0.30;;;;;;;;;;5090406;28;20449;-71
2022/11/11 08:07:42;;;;;;;0.20;0.20;;;;;;;;;;5090459;28;20402;-71
2022/11/11 08:10:26;;;;;;;0.30;0.30;;;;;;;;;;5090314;28;20043;-71
2022/11/11 08:16:14;;;;;;;0.40;0.40;;;;;;;;;;5090141;28;20051;-70
2022/11/11 08:18:58;;;;;;;0.40;0.40;;;;;;;;;;5089892;28;20522;-71
2022/11/11 08:21:42;;;;;;;0.20;0.20;;;;;;;;;;5090341;28;20085;-72
2022/11/11 08:24:27;;;;;;;0.40;0.40;;;;;;;;;;5090252;28;20039;-71
2022/11/11 08:27:11;;;;;;;0.20;0.20;;;;;;;;;;5090073;28;20164;-71
2022/11/11 08:29:56;;;;;;;0.20;0.20;;;;;;;;;;5089852;28;20078;-71
2022/11/11 08:32:40;;;;;;;0.32;0.32;;;;;;;;;;5089708;28;20142;-71
2022/11/11 08:35:26;;;;;;;0.20;0.20;;;;;;;;;;5090395;28;20226;-73
2022/11/11 08:38:12;;;;;;;0.10;0.10;;;;;;;;;;5089781;28;20086;-72
2022/11/11 08:40:59;;;;;;;0.57;0.57;;;;;;;;;;5089694;28;20074;-72
2022/11/11 08:43:44;;;;;;;0.30;0.30;;;;;;;;;;5089729;28;20051;-72
2022/11/11 08:46:28;;;;;;;0.20;0.20;;;;;;;;;;5089395;28;20495;-72
2022/11/11 08:49:12;;;;;;;0.20;0.20;;;;;;;;;;5089683;28;20039;-72
2022/11/11 08:51:56;;;;;;;0.20;0.20;;;;;;;;;;5089549;28;20135;-72
2022/11/11 08:54:41;;;;;;;0.30;0.30;;;;;;;;;;5089012;28;20093;-72
2022/11/11 08:57:25;;;;;;;4.20;3.95;;;;;;;;;;5089486;28;20441;-73
2022/11/11 09:00:10;;;;;;;0.20;0.20;;;;;;;;;;5089458;28;20051;-71
2022/11/11 09:02:59;;;;;;;0.20;0.20;;;;;;;;;;5089312;28;20403;-72
2022/11/11 09:05:43;;;;;;;0.25;0.25;;;;;;;;;;5090004;28;20074;-72
2022/11/11 09:08:27;;;;;;;0.22;0.22;;;;;;;;;;5089733;28;20042;-71
2022/11/11 09:11:12;;;;;;;0.30;0.30;;;;;;;;;;5091208;28;20105;-73
2022/11/11 09:13:56;;;;;;;0.15;0.15;;;;;;;;;;5093463;28;20054;-72
2022/11/11 09:16:41;;;;;;;0.30;0.30;;;;;;;;;;5092318;28;20058;-71
2022/11/11 09:19:25;;;;;;;0.47;0.47;;;;;;;;;;5093851;28;20046;-72
2022/11/11 09:22:09;;;;;;;0.57;0.50;;;;;;;;;;5093431;28;20096;-72
2022/11/11 09:24:55;;;;;;;0.68;0.68;;;;;;;;;;5092256;28;20391;-72
2022/11/11 09:27:38;;;;;;;0.20;0.20;;;;;;;;;;5093575;28;20546;-72
2022/11/11 09:30:24;;;;;;;0.40;0.40;;;;;;;;;;5093278;28;20081;-72
2022/11/11 09:33:11;;;;;;;0.28;0.28;;;;;;;;;;5093075;28;20059;-73
2022/11/11 09:35:56;;;;;;;0.60;0.60;;;;;;;;;;5093398;28;20046;-71
2022/11/11 09:38:40;;;;;;;0.40;0.40;;;;;;;;;;5093198;28;20109;-72
2022/11/11 09:41:28;;;;;;;0.93;0.77;;;;;;;;;;5093023;28;20061;-72
2022/11/11 09:44:24;;;;;;;0.20;0.20;;;;;;;;;;5093091;28;20081;-72
2022/11/11 09:47:14;;;;;;;0.45;0.45;;;;;;;;;;5092858;28;20082;-72
2022/11/11 09:49:58;;;;;;;0.25;0.25;;;;;;;;;;5092893;28;20042;-72
2022/11/11 09:52:48;;;;;;;0.70;0.63;;;;;;;;;;5092501;28;20047;-72
2022/11/11 09:55:35;;;;;;;1.75;1.65;;;;;;;;;;5092656;28;20437;-72
2022/11/11 09:58:19;;;;;;;1.38;0.82;;;;;;;;;;5092735;28;20038;-71
2022/11/11 10:01:23;;;;;;;0.20;0.20;;;;;;;;;;5093169;28;20521;-70
2022/11/11 10:04:29;;;;;;;0.30;0.30;;;;;;;;;;5092749;28;20104;-69
2022/11/11 10:07:43;;;;;;;0.20;0.20;;;;;;;;;;5091695;28;20043;-69
2022/11/11 10:10:34;;;;;;;0.30;0.30;;;;;;;;;;5088219;28;20039;-71
2022/11/11 10:13:35;;;;;;;1.98;1.42;;;;;;;;;;5092551;28;20058;-71
2022/11/11 10:16:31;;;;;;;0.30;0.30;;;;;;;;;;5092339;28;20131;-70
2022/11/11 10:19:28;;;;;;;0.30;0.30;;;;;;;;;;5092700;28;20078;-70
2022/11/11 10:22:30;;;;;;;0.20;0.20;;;;;;;;;;5091236;28;20059;-72
2022/11/11 10:25:20;;;;;;;1.85;0.85;;;;;;;;;;5092536;28;20047;-72
2022/11/11 10:28:04;;;;;;;1.00;0.90;;;;;;;;;;5091313;28;20071;-71
2022/11/11 10:30:51;;;;;;;0.20;0.20;;;;;;;;;;5091818;28;20043;-70
2022/11/11 10:33:55;;;;;;;0.82;0.68;;;;;;;;;;5092060;28;20514;-71
2022/11/11 10:36:48;;;;;;;0.57;0.57;;;;;;;;;;5090435;28;20055;-71
2022/11/11 10:39:56;;;;;;;1.77;1.27;;;;;;;;;;5091865;28;20035;-71
2022/11/11 10:42:41;;;;;;;0.22;0.22;;;;;;;;;;5091908;28;20502;-71
2022/11/11 10:45:46;;;;;;;0.30;0.30;;;;;;;;;;5091992;28;20078;-71
2022/11/11 10:48:37;;;;;;;0.50;0.45;;;;;;;;;;5090727;28;20043;-72
2022/11/11 10:51:22;;;;;;;0.20;0.20;;;;;;;;;;5091846;28;20503;-71
2022/11/11 10:54:16;;;;;;;1.10;0.93;;;;;;;;;;5091906;28;20100;-71
2022/11/11 10:57:16;;;;;;;0.40;0.30;;;;;;;;;;5091961;28;20543;-70
2022/11/11 11:00:05;;;;;;;0.20;0.20;;;;;;;;;;5091663;28;20035;-70
2022/11/11 11:02:56;;;;;;;0.45;0.35;;;;;;;;;;5090378;28;20526;-69
2022/11/11 11:05:58;;;;;;;5.95;1.02;;;;;;;;;;5091533;28;20034;-72
2022/11/11 11:08:46;;;;;;;0.40;0.40;;;;;;;;;;5091049;28;20079;-72
2022/11/11 11:11:36;;;;;;;0.30;0.30;;;;;;;;;;5091422;28;20089;-72
2022/11/11 11:14:25;;;;;;;2.72;0.45;;;;;;;;;;5091433;28;20050;-71
2022/11/11 11:17:13;;;;;;;0.77;0.60;;;;;;;;;;5091304;28;20101;-73
2022/11/11 11:20:09;;;;;;;0.60;0.47;;;;;;;;;;5091452;28;20046;-72
2022/11/11 11:22:56;;;;;;;0.20;0.20;;;;;;;;;;5090865;28;20690;-70
2022/11/11 11:25:50;;;;;;;0.20;0.20;;;;;;;;;;5091047;28;20062;-70
2022/11/11 11:28:35;;;;;;;0.63;0.35;;;;;;;;;;5090826;28;20068;-71
2022/11/11 11:31:33;;;;;;;0.30;0.30;;;;;;;;;;5091171;28;20063;-73
2022/11/11 11:34:18;;;;;;;0.97;0.87;;;;;;;;;;5090118;28;20138;-69
2022/11/11 11:37:02;;;;;;;0.65;0.65;;;;;;;;;;5091205;28;20621;-69
2022/11/11 11:39:47;;;;;;;1.88;1.13;;;;;;;;;;5090611;28;20065;-71
2022/11/11 11:42:33;;;;;;;0.35;0.35;;;;;;;;;;5089850;28;20169;-72
2022/11/11 11:45:23;;;;;;;0.43;0.40;;;;;;;;;;5090846;28;20061;-71
2022/11/11 11:48:27;;;;;;;0.40;0.40;;;;;;;;;;5090890;28;20047;-72
2022/11/11 11:51:31;;;;;;;0.43;0.43;;;;;;;;;;5089876;28;20042;-72
2022/11/11 11:54:21;;;;;;;0.60;0.60;;;;;;;;;;5090740;28;20166;-74
2022/11/11 11:57:14;;;;;;;2.00;1.40;;;;;;;;;;5090595;28;20487;-70
2022/11/11 12:00:04;;;;;;;1.08;0.70;;;;;;;;;;5090700;28;20701;-70
2022/11/11 12:03:14;;;;;;;1.23;0.80;;;;;;;;;;5090344;28;20046;-71
2022/11/11 12:06:09;;;;;;;0.75;0.52;;;;;;;;;;5090256;28;20497;-72
2022/11/11 12:09:00;;;;;;;0.20;0.20;;;;;;;;;;5089942;28;20039;-71
2022/11/11 12:11:48;;;;;;;2.90;1.40;;;;;;;;;;5090319;28;20043;-71
2022/11/11 12:14:51;;;;;;;0.40;0.40;;;;;;;;;;5090404;28;20046;-72
2022/11/11 12:17:43;;;;;;;2.95;1.23;;;;;;;;;;5090297;28;20170;-71
2022/11/11 12:20:47;;;;;;;0.20;0.20;;;;;;;;;;5090234;28;20391;-73
2022/11/11 12:23:32;;;;;;;0.30;0.30;;;;;;;;;;5090371;28;20071;-73
2022/11/11 12:26:20;;;;;;;0.30;0.30;;;;;;;;;;5090185;28;20042;-71
2022/11/11 12:29:23;;;;;;;0.20;0.20;;;;;;;;;;5090088;28;20038;-71
2022/11/11 12:32:07;;;;;;;0.20;0.20;;;;;;;;;;5089513;28;20059;-71
2022/11/11 12:35:01;;;;;;;1.45;0.93;;;;;;;;;;5089825;28;20065;-71
2022/11/11 12:37:46;;;;;;;0.30;0.30;;;;;;;;;;5089976;28;20514;-73
2022/11/11 12:40:30;;;;;;;1.48;1.42;;;;;;;;;;5090098;28;20043;-72
2022/11/11 12:43:24;;;;;;;0.40;0.40;;;;;;;;;;5089795;28;20502;-71
2022/11/11 12:46:18;;;;;;;0.20;0.20;;;;;;;;;;5089154;28;20039;-72
2022/11/11 12:49:21;;;;;;;0.20;0.20;;;;;;;;;;5088641;28;20127;-72
2022/11/11 12:52:06;;;;;;;0.63;0.63;;;;;;;;;;5088857;28;20073;-72
2022/11/11 12:55:16;;;;;;;0.20;0.20;;;;;;;;;;5089654;28;20086;-71
2022/11/11 12:58:01;;;;;;;0.20;0.20;;;;;;;;;;5089753;28;20086;-72
2022/11/11 13:01:01;;;;;;;0.20;0.20;;;;;;;;;;5089259;28;20164;-72
2022/11/11 13:04:04;;;;;;;0.20;0.20;;;;;;;;;;5089622;28;20043;-71
2022/11/11 13:06:55;;;;;;;0.47;0.47;;;;;;;;;;5089576;28;20093;-71
2022/11/11 13:10:02;;;;;;;1.17;0.98;;;;;;;;;;5089761;28;20091;-71
2022/11/11 13:12:59;;;;;;;0.20;0.20;;;;;;;;;;5089123;28;20050;-71
2022/11/11 13:15:44;;;;;;;0.20;0.20;;;;;;;;;;5089450;28;20036;-71
2022/11/11 13:18:42;;;;;;;0.70;0.70;;;;;;;;;;5089368;28;20043;-71
2022/11/11 13:21:45;;;;;;;1.50;1.13;;;;;;;;;;5088555;28;20030;-71
2022/11/11 13:24:31;;;;;;;1.73;0.98;;;;;;;;;;5089631;28;20418;-70
2022/11/11 13:27:32;;;;;;;0.63;0.63;;;;;;;;;;5089520;28;20039;-70
2022/11/11 13:30:35;;;;;;;2.65;1.08;;;;;;;;;;5089540;28;20070;-71
2022/11/11 13:33:21;;;;;;;1.13;0.70;;;;;;;;;;5089041;28;20071;-70
2022/11/11 13:36:07;;;;;;;1.20;0.70;;;;;;;;;;5089250;28;20559;-71
2022/11/11 13:38:53;;;;;;;0.55;0.55;;;;;;;;;;5089289;28;20622;-71
2022/11/11 13:41:39;;;;;;;2.05;1.13;;;;;;;;;;5089450;28;20047;-71
2022/11/11 13:44:29;;;;;;;0.30;0.30;;;;;;;;;;5088979;28;20097;-71
2022/11/11 13:47:17;;;;;;;0.57;0.57;;;;;;;;;;5089204;28;20102;-73
2022/11/11 13:50:04;;;;;;;1.35;0.65;;;;;;;;;;5089407;28;20230;-72
2022/11/11 13:53:15;;;;;;;0.50;0.50;;;;;;;;;;5088729;28;20051;-72
2022/11/11 13:56:02;;;;;;;0.73;0.50;;;;;;;;;;5083399;28;20059;-71
2022/11/11 13:58:47;;;;;;;1.42;1.10;;;;;;;;;;5092224;28;20432;-72
2022/11/11 14:01:33;;;;;;;1.75;1.05;;;;;;;;;;5093125;28;20093;-72
2022/11/11 14:04:18;;;;;;;0.25;0.25;;;;;;;;;;5092841;28;20106;-72
2022/11/11 14:07:02;;;;;;;0.75;0.60;;;;;;;;;;5092979;28;20482;-72
2022/11/11 14:09:55;;;;;;;0.43;0.43;;;;;;;;;;5093042;28;20047;-72
2022/11/11 14:12:41;;;;;;;1.02;0.80;;;;;;;;;;5092226;28;20043;-71
2022/11/11 14:15:33;;;;;;;0.30;0.30;;;;;;;;;;5092564;28;20073;-71
2022/11/11 14:18:17;;;;;;;1.33;1.02;;;;;;;;;;5091868;28;20109;-71
2022/11/11 14:21:01;;;;;;;0.45;0.45;;;;;;;;;;5092268;28;20046;-72
2022/11/11 14:23:52;;;;;;;1.95;0.65;;;;;;;;;;5091266;28;20063;-73
2022/11/11 14:26:36;;;;;;;0.85;0.68;;;;;;;;;;5092001;28;20453;-72
2022/11/11 14:29:23;;;;;;;0.30;0.30;;;;;;;;;;5092389;28;20085;-72
2022/11/11 14:32:13;;;;;;;2.72;1.25;;;;;;;;;;5091757;28;20121;-72
2022/11/11 14:35:06;;;;;;;0.20;0.20;;;;;;;;;;5091928;28;20031;-72
2022/11/11 14:37:59;;;;;;;0.20;0.20;;;;;;;;;;5091913;28;20062;-72
2022/11/11 14:40:44;;;;;;;0.30;0.30;;;;;;;;;;5092101;28;20154;-71
2022/11/11 14:43:31;;;;;;;1.70;1.25;;;;;;;;;;5092015;28;20039;-72
2022/11/11 14:46:15;;;;;;;0.28;0.28;;;;;;;;;;5091737;28;20054;-72
2022/11/11 14:49:01;;;;;;;1.00;0.75;;;;;;;;;;5091662;28;20115;-71
2022/11/11 14:51:52;;;;;;;0.90;0.80;;;;;;;;;;5091895;28;20086;-72
2022/11/11 14:54:51;;;;;;;0.22;0.22;;;;;;;;;;5091346;28;20051;-72
2022/11/11 14:57:45;;;;;;;2.22;1.17;;;;;;;;;;5091918;28;20047;-70
2022/11/11 15:00:31;;;;;;;0.20;0.20;;;;;;;;;;5091623;28;20042;-72
2022/11/11 15:03:15;;;;;;;4.03;1.00;;;;;;;;;;5103789;28;20034;-71
2022/11/11 15:06:00;;;;;;;0.57;0.55;;;;;;;;;;5110668;28;20066;-71
2022/11/11 15:08:50;;;;;;;0.73;0.63;;;;;;;;;;5111279;28;20030;-70
2022/11/11 15:11:53;;;;;;;0.35;0.30;;;;;;;;;;5111301;28;20518;-71
2022/11/11 15:14:51;;;;;;;1.55;0.90;;;;;;;;;;5111184;28;20531;-70
2022/11/11 15:17:35;;;;;;;2.95;1.38;;;;;;;;;;5110410;28;20042;-70
2022/11/11 15:20:19;;;;;;;0.55;0.40;;;;;;;;;;5111324;28;20059;-70
2022/11/11 15:23:04;;;;;;;3.22;0.90;;;;;;;;;;5111643;28;20069;-71
2022/11/11 15:26:07;;;;;;;0.95;0.63;;;;;;;;;;5111695;28;20132;-72
2022/11/11 15:29:06;;;;;;;0.30;0.30;;;;;;;;;;5111267;28;20043;-70
2022/11/11 15:31:50;;;;;;;1.67;1.58;;;;;;;;;;5110998;28;20555;-71
2022/11/11 15:34:34;;;;;;;1.13;0.65;;;;;;;;;;5111312;28;20069;-71
2022/11/11 15:37:19;;;;;;;0.75;0.75;;;;;;;;;;5111534;28;20042;-70
2022/11/11 15:40:04;;;;;;;0.35;0.35;;;;;;;;;;5111265;28;20038;-71
2022/11/11 15:42:50;;;;;;;1.25;1.10;;;;;;;;;;5110929;28;20046;-70
2022/11/11 15:45:35;;;;;;;0.80;0.80;;;;;;;;;;5111523;28;20077;-71
2022/11/11 15:48:23;;;;;;;1.17;0.98;;;;;;;;;;5111102;28;20054;-70
2022/11/11 15:51:35;;;;;;;0.40;0.40;;;;;;;;;;5111039;28;20046;-69
2022/11/11 15:54:25;;;;;;;0.20;0.20;;;;;;;;;;5110528;28;20134;-70
2022/11/11 15:57:09;;;;;;;;;;;;;;;;;;5111429;28;20050;-72
2022/11/11 15:59:54;;;;;;;3.20;1.58;;;;;;;;;;5110688;28;19919;-69
2022/11/11 16:02:40;;;;;;;0.30;0.30;;;;;;;;;;5110788;28;20066;-71
2022/11/11 16:05:25;;;;;;;0.70;0.70;;;;;;;;;;5110924;28;20101;-73
2022/11/11 16:08:16;;;;;;;1.02;0.88;;;;;;;;;;5110758;28;20050;-70
2022/11/11 16:11:01;;;;;;;2.65;0.35;;;;;;;;;;5111160;28;20104;-72
2022/11/11 16:13:45;;;;;;;0.85;0.85;;;;;;;;;;5110335;28;20042;-69
2022/11/11 16:16:35;;;;;;;0.60;0.52;;;;;;;;;;5110644;28;20051;-71
2022/11/11 16:19:37;;;;;;;0.85;0.85;;;;;;;;;;5110232;28;20078;-69
2022/11/11 16:22:28;;;;;;;0.45;0.45;;;;;;;;;;5110497;28;20042;-69
2022/11/11 16:25:15;;;;;;;1.05;1.05;;;;;;;;;;5110334;28;20042;-70
2022/11/11 16:27:59;;;;;;;0.47;0.47;;;;;;;;;;5110387;28;20505;-70
2022/11/11 16:30:44;;;;;;;0.20;0.20;;;;;;;;;;5108735;28;20035;-70
2022/11/11 16:33:30;;;;;;;0.98;0.93;;;;;;;;;;5110324;28;20108;-71
2022/11/11 16:36:15;;;;;;;0.20;0.20;;;;;;;;;;5110795;28;20046;-70
2022/11/11 16:39:12;;;;;;;0.20;0.20;;;;;;;;;;5105703;28;20092;-70
2022/11/11 16:41:57;;;;;;;0.20;0.20;;;;;;;;;;5105138;28;20070;-70
2022/11/11 16:44:44;;;;;;;0.57;0.57;;;;;;;;;;5109966;28;20926;-69
2022/11/11 16:47:31;;;;;;;1.05;0.95;;;;;;;;;;5110001;28;20043;-71
2022/11/11 16:50:21;;;;;;;1.55;1.02;;;;;;;;;;5109871;28;20042;-68
2022/11/11 16:53:06;;;;;;;0.30;0.30;;;;;;;;;;5108785;28;20089;-72
2022/11/11 16:55:51;;;;;;;0.20;0.20;;;;;;;;;;5110008;28;20066;-72
2022/11/11 16:58:39;;;;;;;0.15;0.15;;;;;;;;;;5110053;28;20053;-70
2022/11/11 17:01:23;;;;;;;0.30;0.30;;;;;;;;;;5110171;28;20077;-69
2022/11/11 17:04:08;;;;;;;0.52;0.52;;;;;;;;;;5110044;28;20038;-69
2022/11/11 17:06:55;;;;;;;0.75;0.57;;;;;;;;;;5109698;28;20047;-71
2022/11/11 17:09:40;;;;;;;0.98;0.95;;;;;;;;;;5110133;28;20541;-69
2022/11/11 17:12:31;;;;;;;0.88;0.88;;;;;;;;;;5109841;28;20086;-69
2022/11/11 17:15:16;;;;;;;3.45;0.75;;;;;;;;;;5109867;28;20127;-69
2022/11/11 17:18:00;;;;;;;0.47;0.47;;;;;;;;;;5110000;28;20390;-70
2022/11/11 17:20:45;;;;;;;0.40;0.40;;;;;;;;;;5109492;28;20043;-70
2022/11/11 17:23:29;;;;;;;0.80;0.80;;;;;;;;;;5109906;28;20117;-69
2022/11/11 17:26:16;;;;;;;4.85;2.15;;;;;;;;;;5109917;28;20045;-69
2022/11/11 17:29:00;;;;;;;0.40;0.40;;;;;;;;;;5109385;28;20530;-69
2022/11/11 17:31:44;;;;;;;0.68;0.68;;;;;;;;;;5111306;28;20103;-70
2022/11/11 17:34:28;;;;;;;0.20;0.20;;;;;;;;;;5114035;28;20050;-70
2022/11/11 17:37:12;;;;;;;0.63;0.63;;;;;;;;;;5113756;28;20117;-70
2022/11/11 17:39:57;;;;;;;1.25;0.95;;;;;;;;;;5113408;28;20038;-74
2022/11/11 17:42:41;;;;;;;0.28;0.28;;;;;;;;;;5113264;28;20042;-71
2022/11/11 17:45:27;;;;;;;0.20;0.20;;;;;;;;;;5113935;28;20038;-69
2022/11/11 17:48:11;;;;;;;0.30;0.30;;;;;;;;;;5112161;28;20092;-71
2022/11/11 17:50:56;;;;;;;0.20;0.20;;;;;;;;;;5113329;28;20073;-71
2022/11/11 17:53:40;;;;;;;0.20;0.20;;;;;;;;;;5113030;28;20086;-72
2022/11/11 17:56:25;;;;;;;0.20;0.20;;;;;;;;;;5112911;28;20036;-69
2022/11/11 17:59:10;;;;;;;0.20;0.20;;;;;;;;;;5113507;28;20070;-71
2022/11/11 18:01:54;;;;;;;0.20;0.20;;;;;;;;;;5113086;28;20042;-72